sensor_id;sensor_type;location;lat;lon;timestamp;P1;durP1;ratioP1;P2;durP2;ratioP2
61085;SDS011;46967;48.876;2.136;2024-03-06T00:01:32;7.53;;;3.22;;
61085;SDS011;46967;48.876;2.136;2024-03-06T00:03:59;5.47;;;3.17;;
61085;SDS011;46967;48.876;2.136;2024-03-06T00:06:24;7.40;;;3.30;;
61085;SDS011;46967;48.876;2.136;2024-03-06T00:08:50;4.28;;;3.10;;
61085;SDS011;46967;48.876;2.136;2024-03-06T00:11:15;5.70;;;3.60;;
61085;SDS011;46967;48.876;2.136;2024-03-06T00:13:40;7.40;;;3.20;;
61085;SDS011;46967;48.876;2.136;2024-03-06T00:16:06;6.88;;;4.00;;
61085;SDS011;46967;48.876;2.136;2024-03-06T00:18:31;6.63;;;3.45;;
61085;SDS011;46967;48.876;2.136;2024-03-06T00:20:57;6.15;;;4.15;;
61085;SDS011;46967;48.876;2.136;2024-03-06T00:23:22;7.68;;;3.83;;
61085;SDS011;46967;48.876;2.136;2024-03-06T00:25:47;8.95;;;4.63;;
61085;SDS011;46967;48.876;2.136;2024-03-06T00:28:12;8.63;;;4.50;;
61085;SDS011;46967;48.876;2.136;2024-03-06T00:30:38;4.95;;;4.00;;
61085;SDS011;46967;48.876;2.136;2024-03-06T00:33:03;6.32;;;3.90;;
61085;SDS011;46967;48.876;2.136;2024-03-06T00:35:28;7.43;;;4.20;;
61085;SDS011;46967;48.876;2.136;2024-03-06T00:37:54;6.47;;;3.90;;
61085;SDS011;46967;48.876;2.136;2024-03-06T00:40:19;6.22;;;3.85;;
61085;SDS011;46967;48.876;2.136;2024-03-06T00:42:45;6.88;;;4.07;;
61085;SDS011;46967;48.876;2.136;2024-03-06T00:45:10;6.38;;;3.72;;
61085;SDS011;46967;48.876;2.136;2024-03-06T00:47:36;5.68;;;3.95;;
61085;SDS011;46967;48.876;2.136;2024-03-06T00:50:02;5.65;;;4.03;;
61085;SDS011;46967;48.876;2.136;2024-03-06T00:52:28;6.45;;;4.22;;
61085;SDS011;46967;48.876;2.136;2024-03-06T00:54:53;6.45;;;3.78;;
61085;SDS011;46967;48.876;2.136;2024-03-06T00:57:18;5.53;;;3.92;;
61085;SDS011;46967;48.876;2.136;2024-03-06T00:59:44;4.55;;;3.70;;
61085;SDS011;46967;48.876;2.136;2024-03-06T01:02:09;5.93;;;4.03;;
61085;SDS011;46967;48.876;2.136;2024-03-06T01:04:34;7.32;;;4.75;;
61085;SDS011;46967;48.876;2.136;2024-03-06T01:07:00;5.28;;;3.50;;
61085;SDS011;46967;48.876;2.136;2024-03-06T01:09:25;5.07;;;3.90;;
61085;SDS011;46967;48.876;2.136;2024-03-06T01:11:52;7.07;;;4.15;;
61085;SDS011;46967;48.876;2.136;2024-03-06T01:14:17;6.78;;;4.25;;
61085;SDS011;46967;48.876;2.136;2024-03-06T01:16:43;5.35;;;3.80;;
61085;SDS011;46967;48.876;2.136;2024-03-06T01:19:08;5.95;;;4.40;;
61085;SDS011;46967;48.876;2.136;2024-03-06T01:21:33;7.78;;;4.93;;
61085;SDS011;46967;48.876;2.136;2024-03-06T01:23:59;7.15;;;4.93;;
61085;SDS011;46967;48.876;2.136;2024-03-06T01:26:25;7.57;;;5.25;;
61085;SDS011;46967;48.876;2.136;2024-03-06T01:28:51;6.40;;;5.15;;
61085;SDS011;46967;48.876;2.136;2024-03-06T01:31:16;7.93;;;5.38;;
61085;SDS011;46967;48.876;2.136;2024-03-06T01:33:42;8.45;;;5.70;;
61085;SDS011;46967;48.876;2.136;2024-03-06T01:36:07;7.07;;;5.57;;
61085;SDS011;46967;48.876;2.136;2024-03-06T01:38:32;8.18;;;5.63;;
61085;SDS011;46967;48.876;2.136;2024-03-06T01:40:58;9.18;;;5.95;;
61085;SDS011;46967;48.876;2.136;2024-03-06T01:43:24;8.15;;;6.05;;
61085;SDS011;46967;48.876;2.136;2024-03-06T01:45:50;7.85;;;5.75;;
61085;SDS011;46967;48.876;2.136;2024-03-06T01:48:18;8.77;;;6.28;;
61085;SDS011;46967;48.876;2.136;2024-03-06T01:50:46;8.82;;;6.07;;
61085;SDS011;46967;48.876;2.136;2024-03-06T01:53:12;7.53;;;5.78;;
61085;SDS011;46967;48.876;2.136;2024-03-06T01:55:40;7.72;;;6.00;;
61085;SDS011;46967;48.876;2.136;2024-03-06T01:58:06;7.25;;;5.78;;
61085;SDS011;46967;48.876;2.136;2024-03-06T02:00:33;7.75;;;5.80;;
61085;SDS011;46967;48.876;2.136;2024-03-06T02:02:59;7.57;;;5.60;;
61085;SDS011;46967;48.876;2.136;2024-03-06T02:05:26;7.45;;;5.95;;
61085;SDS011;46967;48.876;2.136;2024-03-06T02:07:53;8.70;;;6.22;;
61085;SDS011;46967;48.876;2.136;2024-03-06T02:10:18;7.75;;;6.22;;
61085;SDS011;46967;48.876;2.136;2024-03-06T02:12:44;8.95;;;6.03;;
61085;SDS011;46967;48.876;2.136;2024-03-06T02:15:10;10.40;;;6.10;;
61085;SDS011;46967;48.876;2.136;2024-03-06T02:17:37;9.38;;;6.22;;
61085;SDS011;46967;48.876;2.136;2024-03-06T02:20:02;8.40;;;5.35;;
61085;SDS011;46967;48.876;2.136;2024-03-06T02:22:30;8.13;;;5.20;;
61085;SDS011;46967;48.876;2.136;2024-03-06T02:24:56;8.05;;;5.60;;
61085;SDS011;46967;48.876;2.136;2024-03-06T02:27:21;9.63;;;5.60;;
61085;SDS011;46967;48.876;2.136;2024-03-06T02:29:47;7.07;;;5.28;;
61085;SDS011;46967;48.876;2.136;2024-03-06T02:32:12;7.28;;;5.20;;
61085;SDS011;46967;48.876;2.136;2024-03-06T02:34:39;6.55;;;5.13;;
61085;SDS011;46967;48.876;2.136;2024-03-06T02:37:05;7.43;;;5.40;;
61085;SDS011;46967;48.876;2.136;2024-03-06T02:39:31;8.68;;;5.63;;
61085;SDS011;46967;48.876;2.136;2024-03-06T02:41:56;8.52;;;5.22;;
61085;SDS011;46967;48.876;2.136;2024-03-06T02:44:22;8.63;;;5.25;;
61085;SDS011;46967;48.876;2.136;2024-03-06T02:46:47;9.02;;;5.43;;
61085;SDS011;46967;48.876;2.136;2024-03-06T02:49:14;8.70;;;5.18;;
61085;SDS011;46967;48.876;2.136;2024-03-06T02:51:40;8.00;;;5.78;;
61085;SDS011;46967;48.876;2.136;2024-03-06T02:54:05;7.93;;;5.32;;
61085;SDS011;46967;48.876;2.136;2024-03-06T02:56:31;8.77;;;5.95;;
61085;SDS011;46967;48.876;2.136;2024-03-06T02:58:56;10.20;;;6.40;;
61085;SDS011;46967;48.876;2.136;2024-03-06T03:01:22;8.65;;;6.00;;
61085;SDS011;46967;48.876;2.136;2024-03-06T03:03:48;10.93;;;6.55;;
61085;SDS011;46967;48.876;2.136;2024-03-06T03:06:13;9.20;;;6.60;;
61085;SDS011;46967;48.876;2.136;2024-03-06T03:08:39;10.50;;;6.18;;
61085;SDS011;46967;48.876;2.136;2024-03-06T03:11:04;8.75;;;6.30;;
61085;SDS011;46967;48.876;2.136;2024-03-06T03:13:30;11.23;;;6.43;;
61085;SDS011;46967;48.876;2.136;2024-03-06T03:15:58;10.02;;;6.57;;
61085;SDS011;46967;48.876;2.136;2024-03-06T03:18:23;8.68;;;6.43;;
61085;SDS011;46967;48.876;2.136;2024-03-06T03:20:48;8.50;;;6.63;;
61085;SDS011;46967;48.876;2.136;2024-03-06T03:23:14;8.50;;;6.10;;
61085;SDS011;46967;48.876;2.136;2024-03-06T03:25:40;7.68;;;5.75;;
61085;SDS011;46967;48.876;2.136;2024-03-06T03:28:06;8.98;;;6.13;;
61085;SDS011;46967;48.876;2.136;2024-03-06T03:30:31;8.50;;;5.68;;
61085;SDS011;46967;48.876;2.136;2024-03-06T03:33:00;9.85;;;6.38;;
61085;SDS011;46967;48.876;2.136;2024-03-06T03:35:25;7.57;;;5.90;;
61085;SDS011;46967;48.876;2.136;2024-03-06T03:37:51;9.13;;;5.78;;
61085;SDS011;46967;48.876;2.136;2024-03-06T03:40:17;8.13;;;5.55;;
61085;SDS011;46967;48.876;2.136;2024-03-06T03:42:43;9.95;;;5.93;;
61085;SDS011;46967;48.876;2.136;2024-03-06T03:45:09;10.25;;;6.10;;
61085;SDS011;46967;48.876;2.136;2024-03-06T03:47:34;9.23;;;5.50;;
61085;SDS011;46967;48.876;2.136;2024-03-06T03:49:59;8.50;;;5.53;;
61085;SDS011;46967;48.876;2.136;2024-03-06T03:52:25;7.25;;;4.75;;
61085;SDS011;46967;48.876;2.136;2024-03-06T03:54:50;9.00;;;5.25;;
61085;SDS011;46967;48.876;2.136;2024-03-06T03:57:15;8.30;;;4.97;;
61085;SDS011;46967;48.876;2.136;2024-03-06T03:59:42;7.85;;;5.18;;
61085;SDS011;46967;48.876;2.136;2024-03-06T04:02:08;7.15;;;4.55;;
61085;SDS011;46967;48.876;2.136;2024-03-06T04:04:33;8.13;;;4.85;;
61085;SDS011;46967;48.876;2.136;2024-03-06T04:06:59;7.80;;;5.10;;
61085;SDS011;46967;48.876;2.136;2024-03-06T04:09:26;10.48;;;4.85;;
61085;SDS011;46967;48.876;2.136;2024-03-06T04:11:52;7.97;;;5.03;;
61085;SDS011;46967;48.876;2.136;2024-03-06T04:14:17;7.03;;;4.47;;
61085;SDS011;46967;48.876;2.136;2024-03-06T04:16:45;5.72;;;4.13;;
61085;SDS011;46967;48.876;2.136;2024-03-06T04:19:10;6.68;;;4.53;;
61085;SDS011;46967;48.876;2.136;2024-03-06T04:21:40;7.03;;;4.20;;
61085;SDS011;46967;48.876;2.136;2024-03-06T04:24:06;6.55;;;4.40;;
61085;SDS011;46967;48.876;2.136;2024-03-06T04:26:32;7.13;;;4.32;;
61085;SDS011;46967;48.876;2.136;2024-03-06T04:28:57;7.43;;;4.40;;
61085;SDS011;46967;48.876;2.136;2024-03-06T04:31:23;6.40;;;4.15;;
61085;SDS011;46967;48.876;2.136;2024-03-06T04:33:48;6.15;;;4.22;;
61085;SDS011;46967;48.876;2.136;2024-03-06T04:36:13;7.78;;;4.28;;
61085;SDS011;46967;48.876;2.136;2024-03-06T04:38:39;7.60;;;4.53;;
61085;SDS011;46967;48.876;2.136;2024-03-06T04:41:05;7.35;;;4.68;;
61085;SDS011;46967;48.876;2.136;2024-03-06T04:43:31;9.13;;;4.65;;
61085;SDS011;46967;48.876;2.136;2024-03-06T04:45:56;6.43;;;3.85;;
61085;SDS011;46967;48.876;2.136;2024-03-06T04:48:22;7.22;;;4.25;;
61085;SDS011;46967;48.876;2.136;2024-03-06T04:50:47;5.75;;;4.28;;
61085;SDS011;46967;48.876;2.136;2024-03-06T04:53:12;5.43;;;4.03;;
61085;SDS011;46967;48.876;2.136;2024-03-06T04:55:38;5.35;;;3.75;;
61085;SDS011;46967;48.876;2.136;2024-03-06T04:58:03;6.45;;;3.80;;
61085;SDS011;46967;48.876;2.136;2024-03-06T05:00:29;8.57;;;4.18;;
61085;SDS011;46967;48.876;2.136;2024-03-06T05:02:55;9.68;;;4.35;;
61085;SDS011;46967;48.876;2.136;2024-03-06T05:05:21;7.13;;;4.07;;
61085;SDS011;46967;48.876;2.136;2024-03-06T05:07:47;5.07;;;3.95;;
61085;SDS011;46967;48.876;2.136;2024-03-06T05:10:13;4.88;;;3.92;;
61085;SDS011;46967;48.876;2.136;2024-03-06T05:12:40;5.40;;;4.32;;
61085;SDS011;46967;48.876;2.136;2024-03-06T05:15:06;6.72;;;4.90;;
61085;SDS011;46967;48.876;2.136;2024-03-06T05:17:33;8.65;;;5.25;;
61085;SDS011;46967;48.876;2.136;2024-03-06T05:19:58;8.93;;;5.38;;
61085;SDS011;46967;48.876;2.136;2024-03-06T05:22:24;6.00;;;4.57;;
61085;SDS011;46967;48.876;2.136;2024-03-06T05:24:49;6.38;;;4.13;;
61085;SDS011;46967;48.876;2.136;2024-03-06T05:27:14;7.50;;;4.50;;
61085;SDS011;46967;48.876;2.136;2024-03-06T05:29:42;6.90;;;4.30;;
61085;SDS011;46967;48.876;2.136;2024-03-06T05:32:08;6.43;;;4.07;;
61085;SDS011;46967;48.876;2.136;2024-03-06T05:34:34;5.65;;;4.32;;
61085;SDS011;46967;48.876;2.136;2024-03-06T05:37:00;6.95;;;4.45;;
61085;SDS011;46967;48.876;2.136;2024-03-06T05:39:26;7.82;;;4.47;;
61085;SDS011;46967;48.876;2.136;2024-03-06T05:41:53;7.97;;;4.43;;
61085;SDS011;46967;48.876;2.136;2024-03-06T05:44:19;6.18;;;4.22;;
61085;SDS011;46967;48.876;2.136;2024-03-06T05:46:45;5.68;;;4.00;;
61085;SDS011;46967;48.876;2.136;2024-03-06T05:49:11;6.70;;;4.55;;
61085;SDS011;46967;48.876;2.136;2024-03-06T05:51:37;6.03;;;4.32;;
61085;SDS011;46967;48.876;2.136;2024-03-06T05:54:03;5.47;;;4.00;;
61085;SDS011;46967;48.876;2.136;2024-03-06T05:56:29;7.45;;;4.53;;
61085;SDS011;46967;48.876;2.136;2024-03-06T05:58:55;7.13;;;4.07;;
61085;SDS011;46967;48.876;2.136;2024-03-06T06:01:20;8.07;;;4.55;;
61085;SDS011;46967;48.876;2.136;2024-03-06T06:03:46;6.20;;;4.32;;
61085;SDS011;46967;48.876;2.136;2024-03-06T06:06:15;9.63;;;5.95;;
61085;SDS011;46967;48.876;2.136;2024-03-06T06:08:41;7.55;;;5.00;;
61085;SDS011;46967;48.876;2.136;2024-03-06T06:11:06;8.27;;;5.03;;
61085;SDS011;46967;48.876;2.136;2024-03-06T06:13:32;7.90;;;4.82;;
61085;SDS011;46967;48.876;2.136;2024-03-06T06:15:58;7.68;;;5.13;;
61085;SDS011;46967;48.876;2.136;2024-03-06T06:18:24;10.68;;;4.93;;
61085;SDS011;46967;48.876;2.136;2024-03-06T06:20:49;7.82;;;4.70;;
61085;SDS011;46967;48.876;2.136;2024-03-06T06:23:14;6.72;;;4.50;;
61085;SDS011;46967;48.876;2.136;2024-03-06T06:25:40;7.88;;;5.03;;
61085;SDS011;46967;48.876;2.136;2024-03-06T06:28:05;6.63;;;5.30;;
61085;SDS011;46967;48.876;2.136;2024-03-06T06:30:30;9.27;;;5.70;;
61085;SDS011;46967;48.876;2.136;2024-03-06T06:32:56;7.65;;;5.53;;
61085;SDS011;46967;48.876;2.136;2024-03-06T06:35:21;12.27;;;6.10;;
61085;SDS011;46967;48.876;2.136;2024-03-06T06:37:47;7.35;;;5.72;;
61085;SDS011;46967;48.876;2.136;2024-03-06T06:40:13;11.52;;;5.43;;
61085;SDS011;46967;48.876;2.136;2024-03-06T06:42:43;6.93;;;5.25;;
61085;SDS011;46967;48.876;2.136;2024-03-06T06:45:12;7.53;;;5.85;;
61085;SDS011;46967;48.876;2.136;2024-03-06T06:47:38;8.80;;;6.32;;
61085;SDS011;46967;48.876;2.136;2024-03-06T06:50:04;8.40;;;5.57;;
61085;SDS011;46967;48.876;2.136;2024-03-06T06:52:30;7.32;;;5.55;;
61085;SDS011;46967;48.876;2.136;2024-03-06T06:54:58;8.07;;;5.50;;
61085;SDS011;46967;48.876;2.136;2024-03-06T06:57:24;8.82;;;5.45;;
61085;SDS011;46967;48.876;2.136;2024-03-06T06:59:49;7.07;;;5.75;;
61085;SDS011;46967;48.876;2.136;2024-03-06T07:02:14;7.53;;;5.80;;
61085;SDS011;46967;48.876;2.136;2024-03-06T07:04:40;9.80;;;6.13;;
61085;SDS011;46967;48.876;2.136;2024-03-06T07:07:05;8.55;;;6.10;;
61085;SDS011;46967;48.876;2.136;2024-03-06T07:09:30;7.80;;;5.93;;
61085;SDS011;46967;48.876;2.136;2024-03-06T07:11:56;10.95;;;6.05;;
61085;SDS011;46967;48.876;2.136;2024-03-06T07:14:21;9.93;;;6.00;;
61085;SDS011;46967;48.876;2.136;2024-03-06T07:16:46;8.20;;;5.63;;
61085;SDS011;46967;48.876;2.136;2024-03-06T07:19:12;8.57;;;5.85;;
61085;SDS011;46967;48.876;2.136;2024-03-06T07:21:37;8.95;;;6.15;;
61085;SDS011;46967;48.876;2.136;2024-03-06T07:24:03;10.25;;;7.35;;
61085;SDS011;46967;48.876;2.136;2024-03-06T07:26:29;10.38;;;7.30;;
61085;SDS011;46967;48.876;2.136;2024-03-06T07:28:58;8.52;;;6.40;;
61085;SDS011;46967;48.876;2.136;2024-03-06T07:31:23;8.90;;;6.60;;
61085;SDS011;46967;48.876;2.136;2024-03-06T07:33:49;12.65;;;8.23;;
61085;SDS011;46967;48.876;2.136;2024-03-06T07:36:15;10.93;;;6.97;;
61085;SDS011;46967;48.876;2.136;2024-03-06T07:38:41;9.82;;;7.43;;
61085;SDS011;46967;48.876;2.136;2024-03-06T07:41:07;10.90;;;7.43;;
61085;SDS011;46967;48.876;2.136;2024-03-06T07:43:32;14.48;;;8.00;;
61085;SDS011;46967;48.876;2.136;2024-03-06T07:45:57;12.02;;;8.23;;
61085;SDS011;46967;48.876;2.136;2024-03-06T07:48:23;11.38;;;7.63;;
61085;SDS011;46967;48.876;2.136;2024-03-06T07:50:49;8.90;;;6.72;;
61085;SDS011;46967;48.876;2.136;2024-03-06T07:53:14;12.00;;;7.53;;
61085;SDS011;46967;48.876;2.136;2024-03-06T07:55:41;10.45;;;7.38;;
61085;SDS011;46967;48.876;2.136;2024-03-06T07:58:06;15.25;;;7.20;;
61085;SDS011;46967;48.876;2.136;2024-03-06T08:00:33;11.40;;;7.97;;
61085;SDS011;46967;48.876;2.136;2024-03-06T08:02:58;9.85;;;7.40;;
61085;SDS011;46967;48.876;2.136;2024-03-06T08:05:25;12.52;;;8.02;;
61085;SDS011;46967;48.876;2.136;2024-03-06T08:07:51;11.82;;;7.53;;
61085;SDS011;46967;48.876;2.136;2024-03-06T08:10:16;10.98;;;7.82;;
61085;SDS011;46967;48.876;2.136;2024-03-06T08:12:44;12.38;;;7.88;;
61085;SDS011;46967;48.876;2.136;2024-03-06T08:15:11;17.52;;;8.55;;
61085;SDS011;46967;48.876;2.136;2024-03-06T08:17:42;10.98;;;7.65;;
61085;SDS011;46967;48.876;2.136;2024-03-06T08:20:08;13.75;;;8.95;;
61085;SDS011;46967;48.876;2.136;2024-03-06T08:22:36;12.23;;;8.32;;
61085;SDS011;46967;48.876;2.136;2024-03-06T08:25:05;12.05;;;8.23;;
61085;SDS011;46967;48.876;2.136;2024-03-06T08:27:32;13.07;;;8.35;;
61085;SDS011;46967;48.876;2.136;2024-03-06T08:29:57;11.25;;;8.15;;
61085;SDS011;46967;48.876;2.136;2024-03-06T08:32:23;12.82;;;8.60;;
61085;SDS011;46967;48.876;2.136;2024-03-06T08:34:48;11.82;;;7.80;;
61085;SDS011;46967;48.876;2.136;2024-03-06T08:37:13;14.18;;;7.88;;
61085;SDS011;46967;48.876;2.136;2024-03-06T08:39:39;13.45;;;8.07;;
61085;SDS011;46967;48.876;2.136;2024-03-06T08:42:04;12.88;;;8.27;;
61085;SDS011;46967;48.876;2.136;2024-03-06T08:44:30;13.52;;;8.38;;
61085;SDS011;46967;48.876;2.136;2024-03-06T08:46:55;13.43;;;8.32;;
61085;SDS011;46967;48.876;2.136;2024-03-06T08:49:21;9.63;;;7.25;;
61085;SDS011;46967;48.876;2.136;2024-03-06T08:51:46;12.75;;;7.85;;
61085;SDS011;46967;48.876;2.136;2024-03-06T08:54:11;12.20;;;7.35;;
61085;SDS011;46967;48.876;2.136;2024-03-06T08:56:36;11.23;;;8.48;;
61085;SDS011;46967;48.876;2.136;2024-03-06T08:59:02;14.25;;;8.07;;
61085;SDS011;46967;48.876;2.136;2024-03-06T09:01:27;10.48;;;7.10;;
61085;SDS011;46967;48.876;2.136;2024-03-06T09:03:53;10.80;;;7.07;;
61085;SDS011;46967;48.876;2.136;2024-03-06T09:06:18;12.88;;;7.70;;
61085;SDS011;46967;48.876;2.136;2024-03-06T09:08:43;10.65;;;7.18;;
61085;SDS011;46967;48.876;2.136;2024-03-06T09:11:09;10.70;;;6.00;;
61085;SDS011;46967;48.876;2.136;2024-03-06T09:13:34;9.02;;;6.28;;
61085;SDS011;46967;48.876;2.136;2024-03-06T09:15:59;10.82;;;6.00;;
61085;SDS011;46967;48.876;2.136;2024-03-06T09:18:25;8.10;;;5.72;;
61085;SDS011;46967;48.876;2.136;2024-03-06T09:20:50;6.93;;;5.20;;
61085;SDS011;46967;48.876;2.136;2024-03-06T09:23:15;7.22;;;5.70;;
61085;SDS011;46967;48.876;2.136;2024-03-06T09:25:41;8.52;;;5.30;;
61085;SDS011;46967;48.876;2.136;2024-03-06T09:28:06;6.88;;;4.93;;
61085;SDS011;46967;48.876;2.136;2024-03-06T09:30:33;8.25;;;4.47;;
61085;SDS011;46967;48.876;2.136;2024-03-06T09:32:59;8.57;;;5.13;;
61085;SDS011;46967;48.876;2.136;2024-03-06T09:35:24;9.27;;;5.28;;
61085;SDS011;46967;48.876;2.136;2024-03-06T09:37:50;8.00;;;5.50;;
61085;SDS011;46967;48.876;2.136;2024-03-06T09:40:21;10.30;;;5.30;;
61085;SDS011;46967;48.876;2.136;2024-03-06T09:42:48;5.38;;;2.80;;
61085;SDS011;46967;48.876;2.136;2024-03-06T09:45:17;7.82;;;3.20;;
61085;SDS011;46967;48.876;2.136;2024-03-06T09:47:44;6.03;;;3.75;;
61085;SDS011;46967;48.876;2.136;2024-03-06T09:50:11;4.78;;;2.45;;
61085;SDS011;46967;48.876;2.136;2024-03-06T09:52:41;4.53;;;2.65;;
61085;SDS011;46967;48.876;2.136;2024-03-06T09:55:11;4.40;;;2.30;;
61085;SDS011;46967;48.876;2.136;2024-03-06T09:57:37;5.55;;;1.27;;
61085;SDS011;46967;48.876;2.136;2024-03-06T10:00:03;2.25;;;1.50;;
61085;SDS011;46967;48.876;2.136;2024-03-06T10:02:34;6.93;;;2.70;;
61085;SDS011;46967;48.876;2.136;2024-03-06T10:05:03;3.47;;;2.47;;
61085;SDS011;46967;48.876;2.136;2024-03-06T10:07:30;3.25;;;2.60;;
61085;SDS011;46967;48.876;2.136;2024-03-06T10:09:56;3.92;;;2.67;;
61085;SDS011;46967;48.876;2.136;2024-03-06T10:12:22;2.00;;;1.42;;
61085;SDS011;46967;48.876;2.136;2024-03-06T10:14:53;2.30;;;1.50;;
61085;SDS011;46967;48.876;2.136;2024-03-06T10:17:22;6.32;;;2.88;;
61085;SDS011;46967;48.876;2.136;2024-03-06T10:19:48;4.38;;;2.63;;
61085;SDS011;46967;48.876;2.136;2024-03-06T10:22:16;3.72;;;1.67;;
61085;SDS011;46967;48.876;2.136;2024-03-06T10:24:42;2.78;;;1.80;;
61085;SDS011;46967;48.876;2.136;2024-03-06T10:27:07;2.97;;;1.88;;
61085;SDS011;46967;48.876;2.136;2024-03-06T10:29:34;5.90;;;2.90;;
61085;SDS011;46967;48.876;2.136;2024-03-06T10:32:00;2.83;;;1.67;;
61085;SDS011;46967;48.876;2.136;2024-03-06T10:34:26;1.73;;;0.95;;
61085;SDS011;46967;48.876;2.136;2024-03-06T10:39:20;2.38;;;1.40;;
61085;SDS011;46967;48.876;2.136;2024-03-06T10:41:48;3.38;;;1.30;;
61085;SDS011;46967;48.876;2.136;2024-03-06T10:44:17;1.20;;;1.00;;
61085;SDS011;46967;48.876;2.136;2024-03-06T10:46:47;2.10;;;1.38;;
61085;SDS011;46967;48.876;2.136;2024-03-06T10:49:20;5.30;;;1.40;;
61085;SDS011;46967;48.876;2.136;2024-03-06T10:51:47;2.95;;;0.90;;
61085;SDS011;46967;48.876;2.136;2024-03-06T10:54:15;4.45;;;1.60;;
61085;SDS011;46967;48.876;2.136;2024-03-06T10:56:41;3.33;;;1.40;;
61085;SDS011;46967;48.876;2.136;2024-03-06T10:59:09;4.57;;;2.30;;
61085;SDS011;46967;48.876;2.136;2024-03-06T11:04:02;3.50;;;1.97;;
61085;SDS011;46967;48.876;2.136;2024-03-06T11:06:28;3.88;;;2.05;;
61085;SDS011;46967;48.876;2.136;2024-03-06T11:08:54;6.07;;;3.00;;
61085;SDS011;46967;48.876;2.136;2024-03-06T11:11:20;4.53;;;3.13;;
61085;SDS011;46967;48.876;2.136;2024-03-06T11:13:46;6.05;;;3.53;;
61085;SDS011;46967;48.876;2.136;2024-03-06T11:16:12;5.30;;;3.13;;
61085;SDS011;46967;48.876;2.136;2024-03-06T11:23:33;4.50;;;3.05;;
61085;SDS011;46967;48.876;2.136;2024-03-06T11:26:00;7.13;;;3.35;;
61085;SDS011;46967;48.876;2.136;2024-03-06T11:33:21;9.32;;;5.00;;
61085;SDS011;46967;48.876;2.136;2024-03-06T11:38:40;4.05;;;2.67;;
61085;SDS011;46967;48.876;2.136;2024-03-06T11:41:06;5.35;;;3.53;;
61085;SDS011;46967;48.876;2.136;2024-03-06T11:43:41;7.63;;;3.10;;
61085;SDS011;46967;48.876;2.136;2024-03-06T11:46:08;6.90;;;2.97;;
61085;SDS011;46967;48.876;2.136;2024-03-06T11:48:34;6.57;;;2.85;;
61085;SDS011;46967;48.876;2.136;2024-03-06T11:51:00;3.65;;;2.47;;
61085;SDS011;46967;48.876;2.136;2024-03-06T11:53:28;5.13;;;2.13;;
61085;SDS011;46967;48.876;2.136;2024-03-06T11:55:55;2.88;;;1.63;;
61085;SDS011;46967;48.876;2.136;2024-03-06T11:58:21;3.70;;;2.10;;
61085;SDS011;46967;48.876;2.136;2024-03-06T12:00:47;3.08;;;2.00;;
61085;SDS011;46967;48.876;2.136;2024-03-06T12:03:13;4.85;;;2.53;;
61085;SDS011;46967;48.876;2.136;2024-03-06T12:05:38;3.05;;;1.95;;
61085;SDS011;46967;48.876;2.136;2024-03-06T12:08:06;3.97;;;2.17;;
61085;SDS011;46967;48.876;2.136;2024-03-06T12:10:36;3.57;;;2.00;;
61085;SDS011;46967;48.876;2.136;2024-03-06T12:13:02;2.63;;;1.75;;
61085;SDS011;46967;48.876;2.136;2024-03-06T12:15:28;3.33;;;1.85;;
61085;SDS011;46967;48.876;2.136;2024-03-06T12:17:53;3.47;;;1.90;;
61085;SDS011;46967;48.876;2.136;2024-03-06T12:20:19;3.97;;;2.00;;
61085;SDS011;46967;48.876;2.136;2024-03-06T12:22:48;2.85;;;1.80;;
61085;SDS011;46967;48.876;2.136;2024-03-06T12:25:20;4.53;;;2.35;;
61085;SDS011;46967;48.876;2.136;2024-03-06T12:27:50;4.15;;;2.55;;
61085;SDS011;46967;48.876;2.136;2024-03-06T12:30:19;2.92;;;2.30;;
61085;SDS011;46967;48.876;2.136;2024-03-06T12:32:57;3.42;;;2.20;;
61085;SDS011;46967;48.876;2.136;2024-03-06T12:35:23;4.03;;;2.10;;
61085;SDS011;46967;48.876;2.136;2024-03-06T12:37:50;6.03;;;2.42;;
61085;SDS011;46967;48.876;2.136;2024-03-06T12:40:16;5.78;;;2.10;;
61085;SDS011;46967;48.876;2.136;2024-03-06T12:42:41;5.60;;;2.30;;
61085;SDS011;46967;48.876;2.136;2024-03-06T12:45:06;4.80;;;2.20;;
61085;SDS011;46967;48.876;2.136;2024-03-06T12:47:33;2.28;;;1.58;;
61085;SDS011;46967;48.876;2.136;2024-03-06T12:49:59;2.47;;;1.70;;
61085;SDS011;46967;48.876;2.136;2024-03-06T12:52:24;6.28;;;1.58;;
61085;SDS011;46967;48.876;2.136;2024-03-06T12:54:49;4.55;;;1.92;;
61085;SDS011;46967;48.876;2.136;2024-03-06T12:57:14;3.85;;;2.10;;
61085;SDS011;46967;48.876;2.136;2024-03-06T12:59:40;2.38;;;1.75;;
61085;SDS011;46967;48.876;2.136;2024-03-06T13:02:06;2.42;;;1.55;;
61085;SDS011;46967;48.876;2.136;2024-03-06T13:04:32;3.50;;;2.20;;
61085;SDS011;46967;48.876;2.136;2024-03-06T13:06:57;3.22;;;2.25;;
61085;SDS011;46967;48.876;2.136;2024-03-06T13:09:22;5.18;;;2.65;;
61085;SDS011;46967;48.876;2.136;2024-03-06T13:11:49;3.25;;;2.78;;
61085;SDS011;46967;48.876;2.136;2024-03-06T13:14:14;8.43;;;2.92;;
61085;SDS011;46967;48.876;2.136;2024-03-06T13:16:40;4.57;;;2.85;;
61085;SDS011;46967;48.876;2.136;2024-03-06T13:19:05;15.15;;;3.05;;
61085;SDS011;46967;48.876;2.136;2024-03-06T13:21:30;5.15;;;2.83;;
61085;SDS011;46967;48.876;2.136;2024-03-06T13:23:56;4.57;;;2.65;;
61085;SDS011;46967;48.876;2.136;2024-03-06T13:26:21;4.40;;;2.42;;
61085;SDS011;46967;48.876;2.136;2024-03-06T13:28:46;8.00;;;2.60;;
61085;SDS011;46967;48.876;2.136;2024-03-06T13:31:12;4.95;;;2.83;;
61085;SDS011;46967;48.876;2.136;2024-03-06T13:33:38;4.55;;;3.20;;
61085;SDS011;46967;48.876;2.136;2024-03-06T13:36:03;5.93;;;2.88;;
61085;SDS011;46967;48.876;2.136;2024-03-06T13:38:29;3.80;;;2.80;;
61085;SDS011;46967;48.876;2.136;2024-03-06T13:40:54;5.65;;;3.38;;
61085;SDS011;46967;48.876;2.136;2024-03-06T13:43:19;6.50;;;2.67;;
61085;SDS011;46967;48.876;2.136;2024-03-06T13:45:51;4.13;;;2.75;;
61085;SDS011;46967;48.876;2.136;2024-03-06T13:48:17;4.90;;;3.15;;
61085;SDS011;46967;48.876;2.136;2024-03-06T13:50:43;6.07;;;2.72;;
61085;SDS011;46967;48.876;2.136;2024-03-06T13:53:09;6.40;;;2.55;;
61085;SDS011;46967;48.876;2.136;2024-03-06T13:55:35;4.50;;;2.50;;
61085;SDS011;46967;48.876;2.136;2024-03-06T13:58:00;4.22;;;2.90;;
61085;SDS011;46967;48.876;2.136;2024-03-06T14:00:26;5.05;;;2.72;;
61085;SDS011;46967;48.876;2.136;2024-03-06T14:02:52;4.40;;;2.67;;
61085;SDS011;46967;48.876;2.136;2024-03-06T14:05:17;5.63;;;2.92;;
61085;SDS011;46967;48.876;2.136;2024-03-06T14:07:44;5.47;;;3.05;;
61085;SDS011;46967;48.876;2.136;2024-03-06T14:10:10;6.15;;;2.90;;
61085;SDS011;46967;48.876;2.136;2024-03-06T14:12:36;4.97;;;2.80;;
61085;SDS011;46967;48.876;2.136;2024-03-06T14:15:02;7.60;;;3.13;;
61085;SDS011;46967;48.876;2.136;2024-03-06T14:17:29;4.00;;;3.13;;
61085;SDS011;46967;48.876;2.136;2024-03-06T14:19:55;4.47;;;2.58;;
61085;SDS011;46967;48.876;2.136;2024-03-06T14:22:20;7.22;;;2.20;;
61085;SDS011;46967;48.876;2.136;2024-03-06T14:24:45;7.40;;;2.58;;
61085;SDS011;46967;48.876;2.136;2024-03-06T14:27:11;3.70;;;2.47;;
61085;SDS011;46967;48.876;2.136;2024-03-06T14:29:36;4.18;;;2.38;;
61085;SDS011;46967;48.876;2.136;2024-03-06T14:32:01;5.07;;;3.10;;
61085;SDS011;46967;48.876;2.136;2024-03-06T14:34:27;4.40;;;3.08;;
61085;SDS011;46967;48.876;2.136;2024-03-06T14:36:53;4.80;;;2.72;;
61085;SDS011;46967;48.876;2.136;2024-03-06T14:39:19;6.47;;;2.78;;
61085;SDS011;46967;48.876;2.136;2024-03-06T14:41:49;3.13;;;2.70;;
61085;SDS011;46967;48.876;2.136;2024-03-06T14:44:14;4.15;;;2.42;;
61085;SDS011;46967;48.876;2.136;2024-03-06T14:46:40;4.60;;;2.80;;
61085;SDS011;46967;48.876;2.136;2024-03-06T14:49:06;7.28;;;2.80;;
61085;SDS011;46967;48.876;2.136;2024-03-06T14:51:32;6.97;;;4.22;;
61085;SDS011;46967;48.876;2.136;2024-03-06T14:53:58;6.38;;;3.42;;
61085;SDS011;46967;48.876;2.136;2024-03-06T14:56:24;5.90;;;2.90;;